sensor_id;sensor_type;location;lat;lon;timestamp;P1;durP1;ratioP1;P2;durP2;ratioP2
12925;SDS011;6529;50.566;9.774;2022-07-29T00:00:01;5.20;;;1.92;;
12925;SDS011;6529;50.566;9.774;2022-07-29T00:02:30;4.38;;;2.00;;
12925;SDS011;6529;50.566;9.774;2022-07-29T00:04:56;4.20;;;2.30;;
12925;SDS011;6529;50.566;9.774;2022-07-29T00:07:22;3.03;;;1.77;;
12925;SDS011;6529;50.566;9.774;2022-07-29T00:09:48;4.32;;;1.85;;
12925;SDS011;6529;50.566;9.774;2022-07-29T00:12:14;3.15;;;2.08;;
12925;SDS011;6529;50.566;9.774;2022-07-29T00:14:39;2.03;;;1.83;;
12925;SDS011;6529;50.566;9.774;2022-07-29T00:17:05;3.38;;;1.83;;
12925;SDS011;6529;50.566;9.774;2022-07-29T00:19:30;2.92;;;1.98;;
12925;SDS011;6529;50.566;9.774;2022-07-29T00:21:56;2.83;;;2.00;;
12925;SDS011;6529;50.566;9.774;2022-07-29T00:24:22;3.75;;;1.90;;
12925;SDS011;6529;50.566;9.774;2022-07-29T00:26:47;3.85;;;1.90;;
12925;SDS011;6529;50.566;9.774;2022-07-29T00:29:13;4.20;;;2.05;;
12925;SDS011;6529;50.566;9.774;2022-07-29T00:31:38;3.42;;;1.98;;
12925;SDS011;6529;50.566;9.774;2022-07-29T00:34:04;2.95;;;1.75;;
12925;SDS011;6529;50.566;9.774;2022-07-29T00:36:31;4.15;;;2.08;;
12925;SDS011;6529;50.566;9.774;2022-07-29T00:38:59;4.43;;;2.00;;
12925;SDS011;6529;50.566;9.774;2022-07-29T00:41:25;2.63;;;1.92;;
12925;SDS011;6529;50.566;9.774;2022-07-29T00:43:50;3.90;;;2.00;;
12925;SDS011;6529;50.566;9.774;2022-07-29T00:46:16;2.88;;;1.80;;
12925;SDS011;6529;50.566;9.774;2022-07-29T00:48:42;1.98;;;1.67;;
12925;SDS011;6529;50.566;9.774;2022-07-29T00:51:07;4.20;;;1.95;;
12925;SDS011;6529;50.566;9.774;2022-07-29T00:53:35;5.33;;;2.07;;
12925;SDS011;6529;50.566;9.774;2022-07-29T00:56:01;2.90;;;1.90;;
12925;SDS011;6529;50.566;9.774;2022-07-29T00:58:26;2.50;;;1.77;;
12925;SDS011;6529;50.566;9.774;2022-07-29T01:00:52;3.65;;;2.10;;
12925;SDS011;6529;50.566;9.774;2022-07-29T01:03:18;7.53;;;1.88;;
12925;SDS011;6529;50.566;9.774;2022-07-29T01:05:44;3.00;;;2.13;;
12925;SDS011;6529;50.566;9.774;2022-07-29T01:08:11;4.22;;;2.05;;
12925;SDS011;6529;50.566;9.774;2022-07-29T01:10:38;4.30;;;2.07;;
12925;SDS011;6529;50.566;9.774;2022-07-29T01:13:05;2.17;;;1.70;;
12925;SDS011;6529;50.566;9.774;2022-07-29T01:15:32;2.37;;;1.70;;
12925;SDS011;6529;50.566;9.774;2022-07-29T01:18:07;3.90;;;1.80;;
12925;SDS011;6529;50.566;9.774;2022-07-29T01:26:28;2.87;;;1.70;;
12925;SDS011;6529;50.566;9.774;2022-07-29T01:31:56;4.43;;;1.60;;
12925;SDS011;6529;50.566;9.774;2022-07-29T01:37:46;3.43;;;1.83;;
12925;SDS011;6529;50.566;9.774;2022-07-29T01:40:24;4.07;;;2.00;;
12925;SDS011;6529;50.566;9.774;2022-07-29T01:43:06;4.07;;;2.00;;
12925;SDS011;6529;50.566;9.774;2022-07-29T01:46:20;4.93;;;1.90;;
12925;SDS011;6529;50.566;9.774;2022-07-29T01:48:29;2.10;;;1.60;;
12925;SDS011;6529;50.566;9.774;2022-07-29T01:51:05;3.10;;;1.83;;
12925;SDS011;6529;50.566;9.774;2022-07-29T01:56:18;2.85;;;1.80;;
12925;SDS011;6529;50.566;9.774;2022-07-29T01:58:46;1.60;;;1.50;;
12925;SDS011;6529;50.566;9.774;2022-07-29T02:01:14;5.60;;;1.70;;
12925;SDS011;6529;50.566;9.774;2022-07-29T02:03:43;2.43;;;1.60;;
12925;SDS011;6529;50.566;9.774;2022-07-29T02:06:11;2.25;;;1.70;;
12925;SDS011;6529;50.566;9.774;2022-07-29T02:08:40;2.60;;;2.15;;
12925;SDS011;6529;50.566;9.774;2022-07-29T02:11:06;3.42;;;1.80;;
12925;SDS011;6529;50.566;9.774;2022-07-29T02:13:33;2.42;;;1.60;;
12925;SDS011;6529;50.566;9.774;2022-07-29T02:16:02;2.43;;;1.60;;
12925;SDS011;6529;50.566;9.774;2022-07-29T02:18:30;3.23;;;1.70;;
12925;SDS011;6529;50.566;9.774;2022-07-29T02:20:58;2.05;;;1.85;;
12925;SDS011;6529;50.566;9.774;2022-07-29T02:23:25;4.13;;;1.70;;
12925;SDS011;6529;50.566;9.774;2022-07-29T02:25:53;2.08;;;1.50;;
12925;SDS011;6529;50.566;9.774;2022-07-29T02:28:25;4.17;;;1.80;;
12925;SDS011;6529;50.566;9.774;2022-07-29T02:30:52;4.80;;;1.90;;
12925;SDS011;6529;50.566;9.774;2022-07-29T02:33:20;1.60;;;1.50;;
12925;SDS011;6529;50.566;9.774;2022-07-29T02:35:48;3.60;;;1.70;;
12925;SDS011;6529;50.566;9.774;2022-07-29T02:38:15;2.03;;;1.60;;
12925;SDS011;6529;50.566;9.774;2022-07-29T02:41:07;3.00;;;1.50;;
12925;SDS011;6529;50.566;9.774;2022-07-29T02:43:36;6.23;;;1.70;;
12925;SDS011;6529;50.566;9.774;2022-07-29T02:46:04;3.37;;;1.70;;
12925;SDS011;6529;50.566;9.774;2022-07-29T02:48:37;3.90;;;1.70;;
12925;SDS011;6529;50.566;9.774;2022-07-29T02:51:13;3.20;;;1.73;;
12925;SDS011;6529;50.566;9.774;2022-07-29T02:53:51;3.80;;;1.83;;
12925;SDS011;6529;50.566;9.774;2022-07-29T02:56:20;3.07;;;1.73;;
12925;SDS011;6529;50.566;9.774;2022-07-29T02:58:56;3.67;;;1.80;;
12925;SDS011;6529;50.566;9.774;2022-07-29T03:01:26;3.97;;;1.90;;
12925;SDS011;6529;50.566;9.774;2022-07-29T03:03:56;2.83;;;1.70;;
12925;SDS011;6529;50.566;9.774;2022-07-29T03:06:26;2.73;;;1.80;;
12925;SDS011;6529;50.566;9.774;2022-07-29T03:08:53;2.67;;;1.60;;
12925;SDS011;6529;50.566;9.774;2022-07-29T03:11:20;3.93;;;1.80;;
12925;SDS011;6529;50.566;9.774;2022-07-29T03:13:46;2.73;;;1.73;;
12925;SDS011;6529;50.566;9.774;2022-07-29T03:16:13;2.00;;;1.70;;
12925;SDS011;6529;50.566;9.774;2022-07-29T03:18:39;4.53;;;1.90;;
12925;SDS011;6529;50.566;9.774;2022-07-29T03:21:05;4.73;;;1.90;;
12925;SDS011;6529;50.566;9.774;2022-07-29T03:23:30;3.77;;;2.07;;
12925;SDS011;6529;50.566;9.774;2022-07-29T03:25:57;6.00;;;2.00;;
12925;SDS011;6529;50.566;9.774;2022-07-29T03:28:22;5.40;;;2.03;;
12925;SDS011;6529;50.566;9.774;2022-07-29T03:30:48;4.80;;;1.80;;
12925;SDS011;6529;50.566;9.774;2022-07-29T03:33:15;7.57;;;2.17;;
12925;SDS011;6529;50.566;9.774;2022-07-29T03:35:41;2.83;;;1.70;;
12925;SDS011;6529;50.566;9.774;2022-07-29T03:38:07;2.63;;;1.80;;
12925;SDS011;6529;50.566;9.774;2022-07-29T03:40:33;4.63;;;1.93;;
12925;SDS011;6529;50.566;9.774;2022-07-29T03:43:05;3.00;;;1.70;;
12925;SDS011;6529;50.566;9.774;2022-07-29T03:45:32;3.73;;;1.80;;
12925;SDS011;6529;50.566;9.774;2022-07-29T03:48:00;3.53;;;1.73;;
12925;SDS011;6529;50.566;9.774;2022-07-29T03:50:28;4.03;;;2.13;;
12925;SDS011;6529;50.566;9.774;2022-07-29T03:52:55;2.07;;;1.70;;
12925;SDS011;6529;50.566;9.774;2022-07-29T03:55:21;2.30;;;1.80;;
12925;SDS011;6529;50.566;9.774;2022-07-29T03:57:47;2.87;;;1.80;;
12925;SDS011;6529;50.566;9.774;2022-07-29T04:00:14;3.13;;;1.70;;
12925;SDS011;6529;50.566;9.774;2022-07-29T04:02:41;3.80;;;2.10;;
12925;SDS011;6529;50.566;9.774;2022-07-29T04:05:12;3.30;;;1.90;;
12925;SDS011;6529;50.566;9.774;2022-07-29T04:07:38;2.43;;;1.87;;
12925;SDS011;6529;50.566;9.774;2022-07-29T04:10:04;3.13;;;1.80;;
12925;SDS011;6529;50.566;9.774;2022-07-29T04:12:30;3.03;;;1.70;;
12925;SDS011;6529;50.566;9.774;2022-07-29T04:14:55;2.63;;;1.60;;
12925;SDS011;6529;50.566;9.774;2022-07-29T04:17:21;3.03;;;1.63;;
12925;SDS011;6529;50.566;9.774;2022-07-29T04:19:46;3.87;;;1.80;;
12925;SDS011;6529;50.566;9.774;2022-07-29T04:22:12;2.40;;;1.70;;
12925;SDS011;6529;50.566;9.774;2022-07-29T04:24:37;2.27;;;2.07;;
12925;SDS011;6529;50.566;9.774;2022-07-29T04:27:03;2.87;;;1.80;;
12925;SDS011;6529;50.566;9.774;2022-07-29T04:29:28;3.70;;;1.90;;
12925;SDS011;6529;50.566;9.774;2022-07-29T04:31:54;2.27;;;1.60;;
12925;SDS011;6529;50.566;9.774;2022-07-29T04:34:20;4.67;;;1.90;;
12925;SDS011;6529;50.566;9.774;2022-07-29T04:36:45;4.37;;;1.90;;
12925;SDS011;6529;50.566;9.774;2022-07-29T04:39:11;5.40;;;1.80;;
12925;SDS011;6529;50.566;9.774;2022-07-29T04:41:37;3.70;;;1.73;;
12925;SDS011;6529;50.566;9.774;2022-07-29T04:44:02;2.87;;;1.73;;
12925;SDS011;6529;50.566;9.774;2022-07-29T04:46:30;4.07;;;1.70;;
12925;SDS011;6529;50.566;9.774;2022-07-29T04:48:56;2.43;;;1.83;;
12925;SDS011;6529;50.566;9.774;2022-07-29T04:51:21;1.80;;;1.70;;
12925;SDS011;6529;50.566;9.774;2022-07-29T04:53:47;3.50;;;1.80;;
12925;SDS011;6529;50.566;9.774;2022-07-29T04:56:12;3.67;;;1.63;;
12925;SDS011;6529;50.566;9.774;2022-07-29T04:58:38;2.10;;;1.60;;
12925;SDS011;6529;50.566;9.774;2022-07-29T05:01:04;5.10;;;1.80;;
12925;SDS011;6529;50.566;9.774;2022-07-29T05:03:30;2.83;;;1.50;;
12925;SDS011;6529;50.566;9.774;2022-07-29T05:05:55;4.00;;;1.93;;
12925;SDS011;6529;50.566;9.774;2022-07-29T05:08:21;2.97;;;1.70;;
12925;SDS011;6529;50.566;9.774;2022-07-29T05:10:46;3.40;;;1.80;;
12925;SDS011;6529;50.566;9.774;2022-07-29T05:13:12;2.67;;;1.77;;
12925;SDS011;6529;50.566;9.774;2022-07-29T05:15:38;3.03;;;1.53;;
12925;SDS011;6529;50.566;9.774;2022-07-29T05:18:04;3.80;;;1.87;;
12925;SDS011;6529;50.566;9.774;2022-07-29T05:20:30;1.93;;;1.60;;
12925;SDS011;6529;50.566;9.774;2022-07-29T05:22:58;4.33;;;2.10;;
12925;SDS011;6529;50.566;9.774;2022-07-29T05:25:27;3.63;;;2.20;;
12925;SDS011;6529;50.566;9.774;2022-07-29T05:27:53;3.07;;;1.60;;
12925;SDS011;6529;50.566;9.774;2022-07-29T05:30:20;6.07;;;1.60;;
12925;SDS011;6529;50.566;9.774;2022-07-29T05:32:46;3.00;;;1.77;;
12925;SDS011;6529;50.566;9.774;2022-07-29T05:35:12;3.63;;;1.83;;
12925;SDS011;6529;50.566;9.774;2022-07-29T05:37:39;2.40;;;1.80;;
12925;SDS011;6529;50.566;9.774;2022-07-29T05:40:05;3.33;;;2.27;;
12925;SDS011;6529;50.566;9.774;2022-07-29T05:42:31;2.90;;;1.77;;
12925;SDS011;6529;50.566;9.774;2022-07-29T05:44:57;4.60;;;2.00;;
12925;SDS011;6529;50.566;9.774;2022-07-29T05:47:23;3.13;;;1.90;;
12925;SDS011;6529;50.566;9.774;2022-07-29T05:49:49;2.57;;;1.60;;
12925;SDS011;6529;50.566;9.774;2022-07-29T05:52:16;5.07;;;1.80;;
12925;SDS011;6529;50.566;9.774;2022-07-29T05:54:41;2.63;;;1.70;;
12925;SDS011;6529;50.566;9.774;2022-07-29T05:57:07;3.60;;;1.80;;
12925;SDS011;6529;50.566;9.774;2022-07-29T05:59:36;3.13;;;2.17;;
12925;SDS011;6529;50.566;9.774;2022-07-29T06:02:03;2.93;;;1.60;;
12925;SDS011;6529;50.566;9.774;2022-07-29T06:04:30;3.77;;;1.60;;
12925;SDS011;6529;50.566;9.774;2022-07-29T06:06:56;2.97;;;1.70;;
12925;SDS011;6529;50.566;9.774;2022-07-29T06:09:21;3.37;;;1.70;;
12925;SDS011;6529;50.566;9.774;2022-07-29T06:11:47;2.37;;;1.57;;
12925;SDS011;6529;50.566;9.774;2022-07-29T06:14:13;3.17;;;1.73;;
12925;SDS011;6529;50.566;9.774;2022-07-29T06:16:39;4.73;;;1.90;;
12925;SDS011;6529;50.566;9.774;2022-07-29T06:19:05;3.53;;;1.60;;
12925;SDS011;6529;50.566;9.774;2022-07-29T06:21:30;3.50;;;1.60;;
12925;SDS011;6529;50.566;9.774;2022-07-29T06:23:56;3.43;;;1.90;;
12925;SDS011;6529;50.566;9.774;2022-07-29T06:26:22;2.83;;;1.67;;
12925;SDS011;6529;50.566;9.774;2022-07-29T06:28:48;4.57;;;1.70;;
12925;SDS011;6529;50.566;9.774;2022-07-29T06:31:13;3.17;;;1.70;;
12925;SDS011;6529;50.566;9.774;2022-07-29T06:33:39;2.77;;;1.90;;
12925;SDS011;6529;50.566;9.774;2022-07-29T06:36:05;3.20;;;1.70;;
12925;SDS011;6529;50.566;9.774;2022-07-29T06:38:31;3.47;;;1.90;;
12925;SDS011;6529;50.566;9.774;2022-07-29T06:40:57;3.00;;;1.90;;
12925;SDS011;6529;50.566;9.774;2022-07-29T06:43:34;3.00;;;2.00;;
12925;SDS011;6529;50.566;9.774;2022-07-29T06:46:10;3.90;;;2.00;;
12925;SDS011;6529;50.566;9.774;2022-07-29T06:48:38;3.77;;;2.07;;
12925;SDS011;6529;50.566;9.774;2022-07-29T06:51:04;2.77;;;1.93;;
12925;SDS011;6529;50.566;9.774;2022-07-29T06:53:30;3.43;;;1.90;;
12925;SDS011;6529;50.566;9.774;2022-07-29T06:55:57;5.30;;;2.00;;
12925;SDS011;6529;50.566;9.774;2022-07-29T06:58:24;4.30;;;2.23;;
12925;SDS011;6529;50.566;9.774;2022-07-29T07:00:50;3.07;;;2.07;;
12925;SDS011;6529;50.566;9.774;2022-07-29T07:03:16;3.50;;;2.30;;
12925;SDS011;6529;50.566;9.774;2022-07-29T07:05:43;4.67;;;2.03;;
12925;SDS011;6529;50.566;9.774;2022-07-29T07:08:09;3.40;;;2.13;;
12925;SDS011;6529;50.566;9.774;2022-07-29T07:10:35;4.70;;;2.47;;
12925;SDS011;6529;50.566;9.774;2022-07-29T07:13:01;4.63;;;2.20;;
12925;SDS011;6529;50.566;9.774;2022-07-29T07:15:27;3.70;;;2.17;;
12925;SDS011;6529;50.566;9.774;2022-07-29T07:17:53;4.63;;;2.10;;
12925;SDS011;6529;50.566;9.774;2022-07-29T07:20:19;3.17;;;2.20;;
12925;SDS011;6529;50.566;9.774;2022-07-29T07:22:44;4.37;;;2.40;;
12925;SDS011;6529;50.566;9.774;2022-07-29T07:25:10;4.67;;;2.27;;
12925;SDS011;6529;50.566;9.774;2022-07-29T07:27:37;3.10;;;2.27;;
12925;SDS011;6529;50.566;9.774;2022-07-29T07:30:03;3.77;;;2.50;;
12925;SDS011;6529;50.566;9.774;2022-07-29T07:32:30;5.50;;;2.80;;
12925;SDS011;6529;50.566;9.774;2022-07-29T07:34:57;3.60;;;2.30;;
12925;SDS011;6529;50.566;9.774;2022-07-29T07:37:24;2.50;;;1.97;;
12925;SDS011;6529;50.566;9.774;2022-07-29T07:39:50;2.90;;;2.07;;
12925;SDS011;6529;50.566;9.774;2022-07-29T07:42:17;3.60;;;1.90;;
12925;SDS011;6529;50.566;9.774;2022-07-29T07:44:42;1.80;;;1.60;;
12925;SDS011;6529;50.566;9.774;2022-07-29T07:47:10;3.97;;;2.00;;
12925;SDS011;6529;50.566;9.774;2022-07-29T07:49:39;3.70;;;2.27;;
12925;SDS011;6529;50.566;9.774;2022-07-29T07:52:04;2.87;;;2.00;;
12925;SDS011;6529;50.566;9.774;2022-07-29T07:54:30;5.10;;;2.30;;
12925;SDS011;6529;50.566;9.774;2022-07-29T07:56:56;3.20;;;1.90;;
12925;SDS011;6529;50.566;9.774;2022-07-29T07:59:21;4.47;;;1.90;;
12925;SDS011;6529;50.566;9.774;2022-07-29T08:01:47;2.70;;;1.87;;
12925;SDS011;6529;50.566;9.774;2022-07-29T08:04:13;3.83;;;1.90;;
12925;SDS011;6529;50.566;9.774;2022-07-29T08:06:39;4.17;;;2.13;;
12925;SDS011;6529;50.566;9.774;2022-07-29T08:09:05;4.27;;;2.10;;
12925;SDS011;6529;50.566;9.774;2022-07-29T08:11:30;4.07;;;1.80;;
12925;SDS011;6529;50.566;9.774;2022-07-29T08:13:56;3.63;;;2.27;;
12925;SDS011;6529;50.566;9.774;2022-07-29T08:16:22;3.83;;;2.10;;
12925;SDS011;6529;50.566;9.774;2022-07-29T08:18:50;3.97;;;1.90;;
12925;SDS011;6529;50.566;9.774;2022-07-29T08:21:15;5.20;;;2.10;;
12925;SDS011;6529;50.566;9.774;2022-07-29T08:23:44;3.60;;;1.93;;
12925;SDS011;6529;50.566;9.774;2022-07-29T08:26:12;3.47;;;1.97;;
12925;SDS011;6529;50.566;9.774;2022-07-29T08:28:38;3.83;;;1.90;;
12925;SDS011;6529;50.566;9.774;2022-07-29T08:31:05;2.73;;;2.13;;
12925;SDS011;6529;50.566;9.774;2022-07-29T08:33:32;2.60;;;2.00;;
12925;SDS011;6529;50.566;9.774;2022-07-29T08:35:58;3.17;;;2.20;;
12925;SDS011;6529;50.566;9.774;2022-07-29T08:38:23;4.17;;;2.50;;
12925;SDS011;6529;50.566;9.774;2022-07-29T08:40:51;5.43;;;2.30;;
12925;SDS011;6529;50.566;9.774;2022-07-29T08:43:17;4.57;;;2.30;;
12925;SDS011;6529;50.566;9.774;2022-07-29T08:45:48;4.27;;;2.23;;
12925;SDS011;6529;50.566;9.774;2022-07-29T08:48:16;3.00;;;1.97;;
12925;SDS011;6529;50.566;9.774;2022-07-29T08:50:44;2.93;;;2.40;;
12925;SDS011;6529;50.566;9.774;2022-07-29T08:53:11;3.33;;;2.30;;
12925;SDS011;6529;50.566;9.774;2022-07-29T08:55:39;4.43;;;2.27;;
12925;SDS011;6529;50.566;9.774;2022-07-29T08:58:07;4.73;;;2.60;;
12925;SDS011;6529;50.566;9.774;2022-07-29T09:00:33;3.83;;;2.43;;
12925;SDS011;6529;50.566;9.774;2022-07-29T09:03:01;4.83;;;2.43;;
12925;SDS011;6529;50.566;9.774;2022-07-29T09:05:29;3.37;;;2.00;;
12925;SDS011;6529;50.566;9.774;2022-07-29T09:07:56;3.23;;;2.30;;
12925;SDS011;6529;50.566;9.774;2022-07-29T09:10:21;5.03;;;2.47;;
12925;SDS011;6529;50.566;9.774;2022-07-29T09:12:47;3.30;;;2.60;;
12925;SDS011;6529;50.566;9.774;2022-07-29T09:15:13;5.93;;;2.53;;
12925;SDS011;6529;50.566;9.774;2022-07-29T09:17:40;4.37;;;2.80;;
12925;SDS011;6529;50.566;9.774;2022-07-29T09:20:11;3.87;;;2.50;;
12925;SDS011;6529;50.566;9.774;2022-07-29T09:22:39;5.47;;;3.33;;
12925;SDS011;6529;50.566;9.774;2022-07-29T09:25:05;4.57;;;2.40;;
12925;SDS011;6529;50.566;9.774;2022-07-29T09:27:31;2.97;;;2.70;;
12925;SDS011;6529;50.566;9.774;2022-07-29T09:29:57;6.83;;;3.03;;
12925;SDS011;6529;50.566;9.774;2022-07-29T09:32:23;4.93;;;2.80;;
12925;SDS011;6529;50.566;9.774;2022-07-29T09:34:49;4.33;;;3.10;;
12925;SDS011;6529;50.566;9.774;2022-07-29T09:37:30;3.53;;;2.83;;
12925;SDS011;6529;50.566;9.774;2022-07-29T09:39:56;5.80;;;2.97;;
12925;SDS011;6529;50.566;9.774;2022-07-29T09:42:28;5.23;;;2.97;;
12925;SDS011;6529;50.566;9.774;2022-07-29T09:44:54;4.67;;;2.93;;
12925;SDS011;6529;50.566;9.774;2022-07-29T09:47:20;4.30;;;2.67;;
12925;SDS011;6529;50.566;9.774;2022-07-29T09:52:19;3.80;;;3.35;;
12925;SDS011;6529;50.566;9.774;2022-07-29T09:54:45;5.38;;;2.88;;
12925;SDS011;6529;50.566;9.774;2022-07-29T09:57:21;4.55;;;2.95;;
12925;SDS011;6529;50.566;9.774;2022-07-29T09:59:57;4.13;;;3.20;;
12925;SDS011;6529;50.566;9.774;2022-07-29T10:02:28;6.47;;;3.20;;
12925;SDS011;6529;50.566;9.774;2022-07-29T10:04:55;4.60;;;3.00;;
12925;SDS011;6529;50.566;9.774;2022-07-29T10:07:21;5.45;;;3.20;;
12925;SDS011;6529;50.566;9.774;2022-07-29T10:09:54;2.95;;;2.50;;
12925;SDS011;6529;50.566;9.774;2022-07-29T10:12:21;4.30;;;3.40;;
12925;SDS011;6529;50.566;9.774;2022-07-29T10:14:47;3.97;;;3.03;;
12925;SDS011;6529;50.566;9.774;2022-07-29T10:17:14;4.57;;;3.53;;
12925;SDS011;6529;50.566;9.774;2022-07-29T10:19:41;4.50;;;3.08;;
12925;SDS011;6529;50.566;9.774;2022-07-29T10:22:08;5.15;;;3.47;;
12925;SDS011;6529;50.566;9.774;2022-07-29T10:24:35;3.97;;;3.15;;
12925;SDS011;6529;50.566;9.774;2022-07-29T10:27:05;4.47;;;2.88;;
12925;SDS011;6529;50.566;9.774;2022-07-29T10:29:32;3.45;;;3.10;;
12925;SDS011;6529;50.566;9.774;2022-07-29T10:32:16;5.22;;;3.30;;
12925;SDS011;6529;50.566;9.774;2022-07-29T10:34:59;5.70;;;3.08;;
12925;SDS011;6529;50.566;9.774;2022-07-29T10:37:52;5.05;;;3.30;;
12925;SDS011;6529;50.566;9.774;2022-07-29T10:40:36;4.75;;;3.22;;
12925;SDS011;6529;50.566;9.774;2022-07-29T10:43:53;4.95;;;2.92;;
12925;SDS011;6529;50.566;9.774;2022-07-29T10:46:19;3.63;;;2.92;;
12925;SDS011;6529;50.566;9.774;2022-07-29T10:51:55;4.05;;;2.90;;
12925;SDS011;6529;50.566;9.774;2022-07-29T10:59:46;3.92;;;3.10;;
12925;SDS011;6529;50.566;9.774;2022-07-29T11:07:34;3.85;;;2.85;;
12925;SDS011;6529;50.566;9.774;2022-07-29T11:23:28;3.63;;;2.70;;
12925;SDS011;6529;50.566;9.774;2022-07-29T11:28:51;2.60;;;2.40;;
12925;SDS011;6529;50.566;9.774;2022-07-29T11:33:55;4.15;;;3.00;;
12925;SDS011;6529;50.566;9.774;2022-07-29T11:36:21;5.25;;;2.92;;
12925;SDS011;6529;50.566;9.774;2022-07-29T11:38:47;2.85;;;2.65;;
12925;SDS011;6529;50.566;9.774;2022-07-29T11:44:07;4.90;;;2.88;;
12925;SDS011;6529;50.566;9.774;2022-07-29T11:46:45;3.58;;;2.83;;
12925;SDS011;6529;50.566;9.774;2022-07-29T11:49:12;5.93;;;3.20;;
12925;SDS011;6529;50.566;9.774;2022-07-29T11:51:38;2.83;;;2.63;;
12925;SDS011;6529;50.566;9.774;2022-07-29T11:54:04;5.00;;;2.75;;
12925;SDS011;6529;50.566;9.774;2022-07-29T11:56:30;3.40;;;2.50;;
12925;SDS011;6529;50.566;9.774;2022-07-29T11:59:07;4.57;;;2.90;;
12925;SDS011;6529;50.566;9.774;2022-07-29T12:01:35;4.43;;;2.70;;
12925;SDS011;6529;50.566;9.774;2022-07-29T12:04:05;2.75;;;2.55;;
12925;SDS011;6529;50.566;9.774;2022-07-29T12:06:31;3.42;;;2.63;;
12925;SDS011;6529;50.566;9.774;2022-07-29T12:08:58;3.22;;;2.92;;
12925;SDS011;6529;50.566;9.774;2022-07-29T12:11:23;2.90;;;2.60;;
12925;SDS011;6529;50.566;9.774;2022-07-29T12:13:50;3.47;;;2.80;;
12925;SDS011;6529;50.566;9.774;2022-07-29T12:16:17;3.72;;;2.60;;
12925;SDS011;6529;50.566;9.774;2022-07-29T12:18:58;3.25;;;2.60;;
12925;SDS011;6529;50.566;9.774;2022-07-29T12:21:26;5.22;;;2.85;;
12925;SDS011;6529;50.566;9.774;2022-07-29T12:23:52;3.08;;;2.78;;
12925;SDS011;6529;50.566;9.774;2022-07-29T12:26:19;3.45;;;2.80;;
12925;SDS011;6529;50.566;9.774;2022-07-29T12:28:45;3.67;;;3.00;;
12925;SDS011;6529;50.566;9.774;2022-07-29T12:31:15;4.50;;;3.10;;
12925;SDS011;6529;50.566;9.774;2022-07-29T12:33:40;2.78;;;2.50;;
12925;SDS011;6529;50.566;9.774;2022-07-29T12:36:07;3.08;;;2.78;;
12925;SDS011;6529;50.566;9.774;2022-07-29T12:38:36;4.40;;;2.70;;
12925;SDS011;6529;50.566;9.774;2022-07-29T12:41:05;3.65;;;2.40;;
12925;SDS011;6529;50.566;9.774;2022-07-29T12:43:32;4.88;;;2.60;;
12925;SDS011;6529;50.566;9.774;2022-07-29T12:46:00;4.20;;;3.08;;
12925;SDS011;6529;50.566;9.774;2022-07-29T12:48:38;3.03;;;2.70;;
12925;SDS011;6529;50.566;9.774;2022-07-29T12:51:06;3.05;;;2.78;;
12925;SDS011;6529;50.566;9.774;2022-07-29T12:53:33;2.72;;;2.47;;
12925;SDS011;6529;50.566;9.774;2022-07-29T12:55:59;6.43;;;2.50;;
12925;SDS011;6529;50.566;9.774;2022-07-29T13:06:31;2.50;;;2.30;;
12925;SDS011;6529;50.566;9.774;2022-07-29T13:09:00;2.40;;;2.20;;
12925;SDS011;6529;50.566;9.774;2022-07-29T13:11:34;2.80;;;2.22;;
12925;SDS011;6529;50.566;9.774;2022-07-29T13:14:03;2.70;;;2.25;;
12925;SDS011;6529;50.566;9.774;2022-07-29T13:16:29;3.00;;;2.13;;
12925;SDS011;6529;50.566;9.774;2022-07-29T13:19:08;2.83;;;2.30;;
12925;SDS011;6529;50.566;9.774;2022-07-29T13:21:37;3.42;;;2.50;;
12925;SDS011;6529;50.566;9.774;2022-07-29T13:24:07;3.55;;;2.20;;
12925;SDS011;6529;50.566;9.774;2022-07-29T13:26:33;2.95;;;2.00;;
12925;SDS011;6529;50.566;9.774;2022-07-29T13:28:59;2.35;;;2.15;;
12925;SDS011;6529;50.566;9.774;2022-07-29T13:31:25;2.58;;;2.20;;
12925;SDS011;6529;50.566;9.774;2022-07-29T13:33:51;2.22;;;2.03;;
12925;SDS011;6529;50.566;9.774;2022-07-29T13:36:16;2.40;;;2.20;;
12925;SDS011;6529;50.566;9.774;2022-07-29T13:38:42;2.95;;;2.10;;
12925;SDS011;6529;50.566;9.774;2022-07-29T13:41:08;2.63;;;2.17;;
12925;SDS011;6529;50.566;9.774;2022-07-29T13:43:34;2.30;;;2.10;;
12925;SDS011;6529;50.566;9.774;2022-07-29T13:45:59;2.30;;;2.05;;
12925;SDS011;6529;50.566;9.774;2022-07-29T13:48:25;2.90;;;2.03;;
12925;SDS011;6529;50.566;9.774;2022-07-29T13:50:51;2.40;;;2.00;;
12925;SDS011;6529;50.566;9.774;2022-07-29T13:53:17;3.22;;;2.38;;
12925;SDS011;6529;50.566;9.774;2022-07-29T13:55:42;2.38;;;2.10;;
12925;SDS011;6529;50.566;9.774;2022-07-29T13:58:08;2.38;;;2.15;;
12925;SDS011;6529;50.566;9.774;2022-07-29T14:00:33;2.85;;;2.08;;
12925;SDS011;6529;50.566;9.774;2022-07-29T14:02:59;2.60;;;2.40;;
12925;SDS011;6529;50.566;9.774;2022-07-29T14:05:25;3.00;;;2.25;;
12925;SDS011;6529;50.566;9.774;2022-07-29T14:07:50;2.63;;;2.20;;
12925;SDS011;6529;50.566;9.774;2022-07-29T14:10:16;3.65;;;2.15;;
12925;SDS011;6529;50.566;9.774;2022-07-29T14:12:41;4.05;;;2.10;;
12925;SDS011;6529;50.566;9.774;2022-07-29T14:15:07;2.35;;;2.10;;
12925;SDS011;6529;50.566;9.774;2022-07-29T14:17:33;2.35;;;2.15;;
12925;SDS011;6529;50.566;9.774;2022-07-29T14:19:59;2.35;;;2.15;;
12925;SDS011;6529;50.566;9.774;2022-07-29T14:22:25;2.40;;;2.20;;
12925;SDS011;6529;50.566;9.774;2022-07-29T14:24:50;2.85;;;2.42;;
12925;SDS011;6529;50.566;9.774;2022-07-29T14:27:16;2.75;;;2.30;;
12925;SDS011;6529;50.566;9.774;2022-07-29T14:29:41;2.92;;;2.20;;
12925;SDS011;6529;50.566;9.774;2022-07-29T14:32:08;2.55;;;2.35;;
12925;SDS011;6529;50.566;9.774;2022-07-29T14:34:35;2.42;;;2.20;;
12925;SDS011;6529;50.566;9.774;2022-07-29T14:37:01;3.28;;;2.45;;
12925;SDS011;6529;50.566;9.774;2022-07-29T14:39:30;2.50;;;2.30;;
12925;SDS011;6529;50.566;9.774;2022-07-29T14:41:56;3.95;;;2.17;;
12925;SDS011;6529;50.566;9.774;2022-07-29T14:44:22;2.97;;;2.17;;
12925;SDS011;6529;50.566;9.774;2022-07-29T14:46:48;3.35;;;2.22;;
12925;SDS011;6529;50.566;9.774;2022-07-29T14:49:14;2.60;;;2.20;;
12925;SDS011;6529;50.566;9.774;2022-07-29T14:51:40;4.93;;;2.20;;
12925;SDS011;6529;50.566;9.774;2022-07-29T14:54:05;2.85;;;2.50;;
12925;SDS011;6529;50.566;9.774;2022-07-29T14:56:31;3.10;;;2.20;;
12925;SDS011;6529;50.566;9.774;2022-07-29T14:58:56;2.58;;;2.00;;
12925;SDS011;6529;50.566;9.774;2022-07-29T15:01:22;2.22;;;2.05;;
12925;SDS011;6529;50.566;9.774;2022-07-29T15:03:49;2.40;;;2.10;;
12925;SDS011;6529;50.566;9.774;2022-07-29T15:06:15;2.42;;;2.22;;
12925;SDS011;6529;50.566;9.774;2022-07-29T15:08:41;3.60;;;2.40;;
12925;SDS011;6529;50.566;9.774;2022-07-29T15:11:06;3.00;;;2.35;;
12925;SDS011;6529;50.566;9.774;2022-07-29T15:13:32;3.25;;;2.40;;
12925;SDS011;6529;50.566;9.774;2022-07-29T15:15:58;2.38;;;2.17;;
12925;SDS011;6529;50.566;9.774;2022-07-29T15:18:24;3.13;;;2.20;;
12925;SDS011;6529;50.566;9.774;2022-07-29T15:20:50;3.65;;;2.40;;
12925;SDS011;6529;50.566;9.774;2022-07-29T15:23:15;2.40;;;2.20;;
12925;SDS011;6529;50.566;9.774;2022-07-29T15:25:41;2.20;;;2.00;;
12925;SDS011;6529;50.566;9.774;2022-07-29T15:28:06;3.03;;;2.03;;
12925;SDS011;6529;50.566;9.774;2022-07-29T15:30:33;2.50;;;2.30;;
12925;SDS011;6529;50.566;9.774;2022-07-29T15:32:59;3.13;;;2.15;;
12925;SDS011;6529;50.566;9.774;2022-07-29T15:35:26;4.03;;;2.05;;
12925;SDS011;6529;50.566;9.774;2022-07-29T15:37:52;2.50;;;2.30;;
12925;SDS011;6529;50.566;9.774;2022-07-29T15:40:17;3.55;;;2.45;;
12925;SDS011;6529;50.566;9.774;2022-07-29T15:42:43;2.40;;;2.20;;
12925;SDS011;6529;50.566;9.774;2022-07-29T15:45:08;3.25;;;2.20;;
12925;SDS011;6529;50.566;9.774;2022-07-29T15:47:34;2.30;;;2.10;;
12925;SDS011;6529;50.566;9.774;2022-07-29T15:50:00;2.38;;;2.17;;
12925;SDS011;6529;50.566;9.774;2022-07-29T15:52:26;2.40;;;2.20;;
12925;SDS011;6529;50.566;9.774;2022-07-29T15:54:51;3.75;;;2.10;;
12925;SDS011;6529;50.566;9.774;2022-07-29T15:57:18;2.40;;;2.20;;
12925;SDS011;6529;50.566;9.774;2022-07-29T15:59:44;2.67;;;2.22;;
12925;SDS011;6529;50.566;9.774;2022-07-29T16:02:10;2.50;;;2.25;;